Time;durP1;ratioP1;P1;durP2;ratioP2;P2;SDS_P1;SDS_P2;PMS_P1;PMS_P2;Temp;Humidity;BMP_temperature;BMP_pressure;BME280_temperature;BME280_humidity;BME280_pressure;Samples;Min_cycle;Max_cycle;Signal;HPM_P1;HPM_P2
2021/01/26 00:00:19;;;;;;;25.40;22.93;;;2.50;99.90;;;;;;6147333;23;20450;-81
2021/01/26 00:02:47;;;;;;;25.13;22.63;;;2.50;99.90;;;;;;6182715;23;20426;-81
2021/01/26 00:05:16;;;;;;;26.80;24.20;;;2.40;99.90;;;;;;6145606;23;20418;-81
2021/01/26 00:07:43;;;;;;;28.53;25.93;;;2.50;99.90;;;;;;6147157;23;20478;-81
2021/01/26 00:10:12;;;;;;;28.00;25.10;;;2.50;99.90;;;;;;6146730;23;20841;-81
2021/01/26 00:12:39;;;;;;;28.47;25.70;;;2.40;99.90;;;;;;6182407;23;20405;-81
2021/01/26 00:15:08;;;;;;;28.53;25.73;;;2.40;99.90;;;;;;6147288;23;20425;-81
2021/01/26 00:17:36;;;;;;;29.80;26.80;;;2.40;99.90;;;;;;6182519;23;20406;-81
2021/01/26 00:20:08;;;;;;;29.33;26.50;;;2.40;99.90;;;;;;6147243;23;20456;-81
2021/01/26 00:22:35;;;;;;;28.70;26.00;;;2.40;99.90;;;;;;6146687;23;20422;-81
2021/01/26 00:25:04;;;;;;;28.97;26.27;;;2.40;99.90;;;;;;6146105;23;20409;-81
2021/01/26 00:27:32;;;;;;;29.70;26.80;;;2.40;99.90;;;;;;6182054;23;20897;-81
2021/01/26 00:29:59;;;;;;;30.20;27.17;;;2.40;99.90;;;;;;6146706;23;20457;-81
2021/01/26 00:32:27;;;;;;;28.73;25.90;;;2.40;99.90;;;;;;6147905;23;20405;-81
2021/01/26 00:34:54;;;;;;;28.80;26.00;;;2.40;99.90;;;;;;6184012;23;20403;-81
2021/01/26 00:37:22;;;;;;;29.60;26.70;;;2.40;99.90;;;;;;6149475;23;20485;-81
2021/01/26 00:39:49;;;;;;;30.57;27.47;;;2.40;99.90;;;;;;6177948;23;20505;-81
2021/01/26 00:42:16;;;;;;;32.77;29.27;;;2.40;99.90;;;;;;6177973;23;20456;-81
2021/01/26 00:44:44;;;;;;;30.60;27.50;;;2.40;99.90;;;;;;6177108;23;20464;-80
2021/01/26 00:47:11;;;;;;;31.23;28.13;;;2.40;99.90;;;;;;6176012;23;20471;-81
2021/01/26 00:49:38;;;;;;;32.00;28.83;;;2.40;99.90;;;;;;6175426;23;20460;-81
2021/01/26 00:52:07;;;;;;;32.60;29.30;;;2.40;99.90;;;;;;6175600;23;20423;-81
2021/01/26 00:54:35;;;;;;;32.97;29.67;;;2.40;99.90;;;;;;6176641;23;20410;-81
2021/01/26 00:57:04;;;;;;;31.93;28.77;;;2.40;99.90;;;;;;6176271;23;20415;-81
2021/01/26 00:59:32;;;;;;;31.03;27.83;;;2.40;99.90;;;;;;6177227;23;20438;-81
2021/01/26 01:02:00;;;;;;;32.50;29.27;;;2.40;99.90;;;;;;6176297;23;20416;-81
2021/01/26 01:04:27;;;;;;;31.83;28.73;;;2.40;99.90;;;;;;6176448;23;20769;-81
2021/01/26 01:06:54;;;;;;;31.77;28.57;;;2.40;99.90;;;;;;6176667;23;20422;-81
2021/01/26 01:09:21;;;;;;;33.10;29.80;;;2.40;99.90;;;;;;6176350;23;21029;-81
2021/01/26 01:11:50;;;;;;;33.17;29.80;;;2.40;99.90;;;;;;6176581;23;20480;-81
2021/01/26 01:14:17;;;;;;;32.93;29.67;;;2.40;99.90;;;;;;6177065;23;20450;-81
2021/01/26 01:16:45;;;;;;;33.37;29.87;;;2.40;99.90;;;;;;6214499;23;20402;-81
2021/01/26 01:19:13;;;;;;;36.77;31.20;;;2.40;99.90;;;;;;6177675;23;20442;-81
2021/01/26 01:21:40;;;;;;;33.60;30.17;;;2.40;99.90;;;;;;6179362;23;20415;-81
2021/01/26 01:24:09;;;;;;;32.57;29.27;;;2.40;99.90;;;;;;6174330;23;20435;-81
2021/01/26 01:26:36;;;;;;;33.80;30.33;;;2.40;99.90;;;;;;6173770;23;20450;-81
2021/01/26 01:29:05;;;;;;;32.20;28.80;;;2.40;99.90;;;;;;6174985;23;20439;-81
2021/01/26 01:31:32;;;;;;;33.77;30.33;;;2.40;99.90;;;;;;6212240;23;20447;-81
2021/01/26 01:33:59;;;;;;;34.33;30.67;;;2.40;99.90;;;;;;6211709;23;20402;-81
2021/01/26 01:36:26;;;;;;;34.13;30.70;;;2.40;99.90;;;;;;6174111;23;20428;-81
2021/01/26 01:38:54;;;;;;;33.93;30.07;;;2.40;99.90;;;;;;6174710;23;20444;-81
2021/01/26 01:41:21;;;;;;;33.27;29.60;;;2.40;99.90;;;;;;6177129;23;20417;-81
2021/01/26 01:43:51;;;;;;;35.22;31.52;;;2.30;99.90;;;;;;6213823;23;20434;-81
2021/01/26 01:46:22;;;;;;;35.03;31.10;;;2.30;99.90;;;;;;6177554;23;20200;-81
2021/01/26 01:48:52;;;;;;;32.60;29.20;;;2.30;99.90;;;;;;6176380;23;20914;-81
2021/01/26 01:51:23;;;;;;;32.33;28.83;;;2.30;99.90;;;;;;6175787;23;20417;-81
2021/01/26 01:53:54;;;;;;;35.23;29.27;;;2.30;99.90;;;;;;6176927;23;20411;-81
2021/01/26 01:56:28;;;;;;;33.60;30.10;;;2.30;99.90;;;;;;6177237;23;20433;-81
2021/01/26 01:58:58;;;;;;;34.17;30.00;;;2.30;99.90;;;;;;6177329;23;20432;-81
2021/01/26 02:01:29;;;;;;;33.00;29.60;;;2.30;99.90;;;;;;6176061;23;20416;-81
2021/01/26 02:04:00;;;;;;;34.83;31.13;;;2.20;99.90;;;;;;6176041;23;20441;-81
2021/01/26 02:06:31;;;;;;;34.60;30.60;;;2.20;99.90;;;;;;6177066;23;20418;-81
2021/01/26 02:09:04;;;;;;;36.50;32.60;;;2.20;99.90;;;;;;6177077;23;20447;-81
2021/01/26 02:11:31;;;;;;;33.00;29.50;;;2.20;99.90;;;;;;6177467;23;20424;-81
2021/01/26 02:13:59;;;;;;;34.07;30.27;;;2.10;99.90;;;;;;6177608;23;20803;-81
2021/01/26 02:16:40;;;;;;;36.60;32.70;;;2.10;99.90;;;;;;6178038;23;20439;-81
2021/01/26 02:19:33;;;;;;;36.00;31.40;;;2.10;99.90;;;;;;6178687;23;20442;-81
2021/01/26 02:22:30;;;;;;;35.33;28.10;;;2.10;99.90;;;;;;6179592;23;20419;-81
2021/01/26 02:25:27;;;;;;;33.67;30.13;;;2.10;99.90;;;;;;6178391;23;20429;-81
2021/01/26 02:28:25;;;;;;;34.10;27.33;;;2.10;99.90;;;;;;6176197;23;20416;-81
2021/01/26 02:31:27;;;;;;;37.80;31.83;;;2.00;99.90;;;;;;6176164;23;20744;-82
2021/01/26 02:34:48;;;;;;;32.90;28.63;;;2.00;99.90;;;;;;6176436;23;20802;-81
2021/01/26 02:38:05;;;;;;;33.33;29.27;;;2.00;99.90;;;;;;6088459;23;20462;-81
2021/01/26 02:40:38;;;;;;;33.27;28.67;;;2.00;99.90;;;;;;6121911;23;20433;-81
2021/01/26 02:43:26;;;;;;;33.03;28.53;;;2.00;99.90;;;;;;6174838;23;20438;-82
2021/01/26 02:45:59;;;;;;;35.70;31.80;;;2.00;99.90;;;;;;6177959;23;20446;-82
2021/01/26 02:48:41;;;;;;;41.20;34.40;;;2.00;99.90;;;;;;6177977;23;20800;-81
2021/01/26 02:51:12;;;;;;;36.17;32.37;;;1.90;99.90;;;;;;6213298;23;20385;-81
2021/01/26 02:53:50;;;;;;;38.37;33.93;;;1.90;99.90;;;;;;6177811;23;20413;-81
2021/01/26 02:56:26;;;;;;;39.93;35.63;;;1.90;99.90;;;;;;6178087;23;20415;-81
2021/01/26 02:58:58;;;;;;;36.63;32.73;;;1.90;99.90;;;;;;6178226;23;20439;-81
2021/01/26 03:01:30;;;;;;;38.30;32.83;;;1.90;99.90;;;;;;6177098;23;20409;-81
2021/01/26 03:04:03;;;;;;;37.20;30.63;;;1.90;99.90;;;;;;6176808;23;20455;-81
2021/01/26 03:06:32;;;;;;;39.83;34.17;;;1.90;99.90;;;;;;6177422;23;20421;-81
2021/01/26 03:09:03;;;;;;;47.10;38.07;;;1.90;99.90;;;;;;6177684;23;20424;-81
2021/01/26 03:11:33;;;;;;;41.40;37.07;;;1.90;99.90;;;;;;6177357;23;20419;-81
2021/01/26 03:14:06;;;;;;;38.93;33.70;;;1.90;99.90;;;;;;6178400;23;20409;-81
2021/01/26 03:16:36;;;;;;;43.60;35.90;;;1.90;99.90;;;;;;6178074;23;20413;-82
2021/01/26 03:19:09;;;;;;;40.13;34.00;;;1.90;99.90;;;;;;6178466;23;20763;-82
2021/01/26 03:21:40;;;;;;;41.33;37.00;;;1.90;99.90;;;;;;6177770;23;20419;-82
2021/01/26 03:24:12;;;;;;;46.53;37.50;;;1.90;99.90;;;;;;6216556;23;20439;-80
2021/01/26 03:26:41;;;;;;;45.10;38.60;;;1.90;99.90;;;;;;6178297;23;20415;-81
2021/01/26 03:29:10;;;;;;;49.77;36.90;;;1.90;99.90;;;;;;6179835;23;20443;-81
2021/01/26 03:31:48;;;;;;;44.33;35.77;;;1.90;99.90;;;;;;6178850;23;20439;-81
2021/01/26 03:34:15;;;;;;;47.20;38.13;;;1.80;99.90;;;;;;6180979;23;20416;-81
2021/01/26 03:36:43;;;;;;;46.13;37.40;;;1.80;99.90;;;;;;6219097;23;20385;-81
2021/01/26 03:39:11;;;;;;;50.77;41.90;;;1.80;99.90;;;;;;6181605;23;20444;-81
2021/01/26 03:41:40;;;;;;;46.70;38.10;;;1.80;99.90;;;;;;6182232;23;20449;-82
2021/01/26 03:44:10;;;;;;;46.63;37.97;;;1.80;99.90;;;;;;6218440;23;20437;-82
2021/01/26 03:47:00;;;;;;;48.00;34.70;;;1.80;99.90;;;;;;6219100;23;20393;-82
2021/01/26 03:49:45;;;;;;;50.00;39.70;;;1.80;99.90;;;;;;6177515;23;20547;-81
2021/01/26 03:52:32;;;;;;;42.03;34.77;;;1.80;99.90;;;;;;6213446;23;20388;-82
2021/01/26 03:55:04;;;;;;;46.37;37.70;;;1.80;99.90;;;;;;6177842;23;20404;-81
2021/01/26 03:57:43;;;;;;;48.50;39.70;;;1.80;99.90;;;;;;6179353;23;20413;-81
2021/01/26 04:00:17;;;;;;;45.67;38.57;;;1.80;99.90;;;;;;6179406;23;20440;-81
2021/01/26 04:03:00;;;;;;;44.73;36.20;;;1.80;99.90;;;;;;6179423;23;20403;-82
2021/01/26 04:05:37;;;;;;;42.00;36.53;;;1.80;99.90;;;;;;6209706;23;20376;-82
2021/01/26 04:08:13;;;;;;;44.47;39.20;;;1.80;99.90;;;;;;6173707;23;20745;-82
2021/01/26 04:10:48;;;;;;;46.50;38.40;;;1.80;99.90;;;;;;6171058;23;20929;-82
2021/01/26 04:13:21;;;;;;;46.63;37.80;;;1.80;99.90;;;;;;6172776;23;20413;-82
2021/01/26 04:15:51;;;;;;;43.50;38.03;;;1.90;99.90;;;;;;6174711;23;20409;-82
2021/01/26 04:18:24;;;;;;;45.50;39.93;;;1.80;99.90;;;;;;6210331;23;20475;-82
2021/01/26 04:20:52;;;;;;;43.80;36.70;;;1.90;99.90;;;;;;6173716;23;20405;-82
2021/01/26 04:23:20;;;;;;;45.83;40.03;;;1.90;99.90;;;;;;6170986;23;20420;-82
2021/01/26 04:25:50;;;;;;;45.20;38.93;;;1.90;99.90;;;;;;6170782;23;20419;-82
2021/01/26 04:28:31;;;;;;;45.07;33.97;;;1.90;99.90;;;;;;6172001;23;20423;-82
2021/01/26 04:30:58;;;;;;;44.97;38.27;;;1.80;99.90;;;;;;6173556;23;20734;-82
2021/01/26 04:33:26;;;;;;;45.80;39.90;;;1.80;99.90;;;;;;6173633;23;20416;-82
2021/01/26 04:35:53;;;;;;;45.30;37.40;;;1.90;99.90;;;;;;6212265;23;20380;-81
2021/01/26 04:38:21;;;;;;;43.73;37.10;;;1.80;99.90;;;;;;6174785;23;20899;-81
2021/01/26 04:40:48;;;;;;;45.47;38.10;;;1.90;99.90;;;;;;6175733;23;20415;-81
2021/01/26 04:43:25;;;;;;;49.40;39.90;;;1.90;99.90;;;;;;6211858;23;20467;-82
2021/01/26 04:46:02;;;;;;;49.50;40.10;;;1.90;99.90;;;;;;6176756;23;20408;-82
2021/01/26 04:48:32;;;;;;;50.83;41.97;;;1.90;99.90;;;;;;6175004;23;20413;-82
2021/01/26 04:51:09;;;;;;;51.30;40.60;;;1.80;99.90;;;;;;6174435;23;20822;-82
2021/01/26 04:53:58;;;;;;;50.60;39.80;;;1.80;99.90;;;;;;6175557;23;20411;-82
2021/01/26 04:56:31;;;;;;;47.30;37.63;;;1.80;99.90;;;;;;6176160;23;20403;-82
2021/01/26 04:59:33;;;;;;;49.77;39.10;;;1.80;99.90;;;;;;6175885;23;20433;-82
2021/01/26 05:02:21;;;;;;;55.80;41.60;;;1.90;99.90;;;;;;6176686;23;20407;-82
2021/01/26 05:04:59;;;;;;;55.03;43.83;;;1.80;99.90;;;;;;6175328;23;20427;-81
2021/01/26 05:07:30;;;;;;;57.07;46.10;;;1.80;99.90;;;;;;6211460;23;20389;-81
2021/01/26 05:10:06;;;;;;;53.50;44.20;;;1.80;99.90;;;;;;6212063;23;20416;-81
2021/01/26 05:12:38;;;;;;;57.40;45.30;;;1.80;99.90;;;;;;6213589;23;20378;-81
2021/01/26 05:15:09;;;;;;;57.87;43.40;;;1.80;99.90;;;;;;6179058;23;20415;-82
2021/01/26 05:17:43;;;;;;;50.10;38.63;;;1.80;99.90;;;;;;6179679;23;20420;-81
2021/01/26 05:20:15;;;;;;;59.13;46.10;;;1.80;99.90;;;;;;6177192;23;20427;-82
2021/01/26 05:22:51;;;;;;;52.93;43.93;;;1.80;99.90;;;;;;6176201;23;20447;-81
2021/01/26 05:25:21;;;;;;;58.23;45.77;;;1.80;99.90;;;;;;6176336;23;20433;-81
2021/01/26 05:27:49;;;;;;;59.13;47.63;;;1.80;99.90;;;;;;6213434;23;20400;-81
2021/01/26 05:30:26;;;;;;;53.03;41.80;;;1.90;99.90;;;;;;6178393;23;20479;-82
2021/01/26 05:32:55;;;;;;;62.50;47.83;;;1.80;99.90;;;;;;6177654;23;20422;-82
2021/01/26 05:35:26;;;;;;;55.67;45.87;;;1.80;99.90;;;;;;6177899;23;20466;-82
2021/01/26 05:37:54;;;;;;;55.53;45.20;;;1.80;99.90;;;;;;6208048;23;20408;-82
2021/01/26 05:40:24;;;;;;;57.80;47.13;;;1.80;99.90;;;;;;6168945;23;20443;-82
2021/01/26 05:42:55;;;;;;;57.87;47.20;;;1.80;99.90;;;;;;6206668;23;20384;-82
2021/01/26 05:45:26;;;;;;;60.53;47.53;;;1.90;99.90;;;;;;6168667;23;20483;-82
2021/01/26 05:48:35;;;;;;;;;;;;;;;;;;;;;
2021/01/26 05:51:17;;;;;;;61.10;49.40;;;1.80;99.90;;;;;;6169547;23;20918;-82
2021/01/26 05:53:50;;;;;;;61.13;47.10;;;1.80;99.90;;;;;;6169582;23;20403;-82
2021/01/26 05:56:18;;;;;;;61.87;50.03;;;1.80;99.90;;;;;;6167761;23;20775;-82
2021/01/26 05:58:47;;;;;;;66.93;49.43;;;1.80;99.90;;;;;;6167660;23;20480;-82
2021/01/26 06:01:27;;;;;;;68.53;48.80;;;1.80;99.90;;;;;;6165896;23;20746;-82
2021/01/26 06:04:12;;;;;;;65.77;50.67;;;1.80;99.90;;;;;;6164698;23;20443;-82
2021/01/26 06:06:51;;;;;;;59.50;43.90;;;1.70;99.90;;;;;;6178821;23;20407;-80
2021/01/26 06:09:34;;;;;;;62.37;49.50;;;1.80;99.90;;;;;;6173471;23;20443;-81
2021/01/26 06:12:10;;;;;;;56.00;41.63;;;1.70;99.90;;;;;;6175492;23;20423;-81
2021/01/26 06:14:38;;;;;;;65.50;49.87;;;1.70;99.90;;;;;;6174752;23;20593;-81
2021/01/26 06:17:09;;;;;;;65.03;48.23;;;1.70;99.90;;;;;;6175058;23;20439;-81
2021/01/26 06:19:37;;;;;;;59.23;43.50;;;1.70;99.90;;;;;;6174898;23;20444;-81
2021/01/26 06:22:05;;;;;;;60.80;46.23;;;1.80;99.90;;;;;;6175185;23;20427;-81
2021/01/26 06:24:37;;;;;;;65.23;50.17;;;1.70;99.90;;;;;;6175658;23;20431;-81
2021/01/26 06:27:42;;;;;;;62.23;46.10;;;1.70;99.90;;;;;;6176608;23;20408;-81
2021/01/26 06:30:26;;;;;;;60.20;48.33;;;1.80;99.90;;;;;;6164176;23;20443;-81
2021/01/26 06:33:19;;;;;;;61.00;44.30;;;1.80;99.90;;;;;;6175169;23;20722;-81
2021/01/26 06:35:59;;;;;;;57.00;39.13;;;1.80;99.90;;;;;;6176733;23;20416;-81
2021/01/26 06:38:44;;;;;;;58.83;44.10;;;1.80;99.90;;;;;;6177973;23;20426;-81
2021/01/26 06:41:25;;;;;;;58.37;44.27;;;1.80;99.90;;;;;;6179166;23;20411;-81
2021/01/26 06:44:08;;;;;;;60.67;45.17;;;1.80;99.90;;;;;;6178967;23;20431;-81
2021/01/26 06:46:50;;;;;;;57.73;40.40;;;1.80;99.90;;;;;;6215937;23;20395;-81
2021/01/26 06:49:42;;;;;;;61.03;47.47;;;1.80;99.90;;;;;;6179081;23;20470;-81
2021/01/26 06:52:19;;;;;;;63.60;45.93;;;1.80;99.90;;;;;;6177360;23;20404;-81
2021/01/26 06:55:20;;;;;;;58.83;40.77;;;1.80;99.90;;;;;;6212633;23;20372;-81
2021/01/26 06:58:15;;;;;;;61.20;45.70;;;1.80;99.90;;;;;;6155504;23;20419;-81
2021/01/26 07:00:51;;;;;;;60.33;41.83;;;1.80;99.90;;;;;;6178583;23;20429;-81
2021/01/26 07:03:55;;;;;;;61.93;47.87;;;1.80;99.90;;;;;;6179803;23;20414;-81
2021/01/26 07:06:49;;;;;;;63.67;42.07;;;1.80;99.90;;;;;;6131903;23;20415;-81
2021/01/26 07:09:43;;;;;;;61.00;43.43;;;1.80;99.90;;;;;;6146590;23;20498;-81
2021/01/26 07:12:39;;;;;;;71.63;48.30;;;1.80;99.90;;;;;;6175172;23;20460;-81
2021/01/26 07:15:25;;;;;;;74.13;50.37;;;1.80;99.90;;;;;;6210590;23;20756;-81
2021/01/26 07:18:29;;;;;;;70.97;49.27;;;1.80;99.90;;;;;;6176084;23;20876;-81
2021/01/26 07:21:11;;;;;;;68.03;50.03;;;1.80;99.90;;;;;;6174476;23;20417;-81
2021/01/26 07:23:51;;;;;;;72.20;50.50;;;1.80;99.90;;;;;;6174191;23;20772;-81
2021/01/26 07:26:38;;;;;;;78.13;54.60;;;1.80;99.90;;;;;;6171978;23;20419;-81
2021/01/26 07:29:32;;;;;;;74.20;53.67;;;1.90;99.90;;;;;;6173941;23;20197;-81
2021/01/26 07:32:04;;;;;;;67.83;46.43;;;1.90;99.90;;;;;;6172522;23;20429;-81
2021/01/26 07:34:39;;;;;;;78.20;51.83;;;1.90;99.90;;;;;;6210029;23;20384;-81
2021/01/26 07:37:11;;;;;;;68.77;45.33;;;1.90;99.90;;;;;;6172980;23;20458;-81
2021/01/26 07:39:49;;;;;;;69.83;52.00;;;1.90;99.90;;;;;;6209329;23;20918;-81
2021/01/26 07:42:22;;;;;;;69.60;45.13;;;1.90;99.90;;;;;;6170950;23;20413;-81
2021/01/26 07:44:57;;;;;;;71.00;51.70;;;1.90;99.90;;;;;;6172566;23;20431;-81
2021/01/26 07:47:31;;;;;;;67.80;48.50;;;1.90;99.90;;;;;;6172129;23;20469;-81
2021/01/26 07:50:05;;;;;;;67.20;49.63;;;1.90;99.90;;;;;;6171781;23;20439;-81
2021/01/26 07:52:36;;;;;;;71.53;48.90;;;1.90;99.90;;;;;;6172588;23;20416;-81
2021/01/26 07:55:09;;;;;;;63.43;42.20;;;1.90;99.90;;;;;;6171473;23;20405;-81
2021/01/26 07:57:41;;;;;;;65.93;49.57;;;1.90;99.90;;;;;;6171936;23;20434;-81
2021/01/26 08:00:11;;;;;;;67.90;49.20;;;1.90;99.90;;;;;;6174845;23;20439;-81
2021/01/26 08:02:45;;;;;;;65.10;51.67;;;1.90;99.90;;;;;;6173941;23;20415;-81
2021/01/26 08:05:16;;;;;;;64.30;48.60;;;1.90;99.90;;;;;;6173037;23;20466;-81
2021/01/26 08:07:44;;;;;;;71.13;52.77;;;2.00;99.90;;;;;;6173920;23;20424;-81
2021/01/26 08:10:22;;;;;;;68.57;50.80;;;1.90;99.90;;;;;;6210904;23;20446;-81
2021/01/26 08:12:50;;;;;;;69.67;52.13;;;2.00;99.90;;;;;;6174791;23;20407;-81
2021/01/26 08:15:22;;;;;;;65.10;48.23;;;2.00;99.90;;;;;;6173950;23;20981;-81
2021/01/26 08:17:50;;;;;;;67.80;53.23;;;2.00;99.90;;;;;;6172873;23;20408;-81
2021/01/26 08:20:29;;;;;;;62.97;48.60;;;2.00;99.90;;;;;;6170916;23;20445;-81
2021/01/26 08:23:00;;;;;;;65.83;50.70;;;2.10;99.90;;;;;;6171113;23;20408;-81
2021/01/26 08:25:32;;;;;;;64.43;49.07;;;2.10;99.90;;;;;;6206280;23;20451;-81
2021/01/26 08:28:04;;;;;;;62.10;42.80;;;2.00;99.90;;;;;;6170536;23;20409;-81
2021/01/26 08:30:59;;;;;;;66.77;50.50;;;2.10;99.90;;;;;;6172140;23;20451;-81
2021/01/26 08:33:30;;;;;;;66.73;48.63;;;2.10;99.90;;;;;;6206537;23;20389;-81
2021/01/26 08:36:37;;;;;;;59.60;45.53;;;2.10;99.90;;;;;;6169313;23;20448;-81
2021/01/26 08:39:27;;;;;;;60.40;48.43;;;2.10;99.90;;;;;;6166792;23;20450;-82
2021/01/26 08:41:58;;;;;;;60.73;47.17;;;2.20;99.90;;;;;;6171461;23;20396;-81
2021/01/26 08:44:52;;;;;;;54.60;44.43;;;2.10;99.90;;;;;;6212814;23;20461;-81
2021/01/26 08:47:42;;;;;;;55.60;44.80;;;2.20;99.90;;;;;;6176899;23;20442;-81
2021/01/26 08:50:14;;;;;;;56.93;44.50;;;2.20;99.90;;;;;;6174423;23;20431;-81
2021/01/26 08:52:41;;;;;;;56.80;46.10;;;2.20;99.90;;;;;;6174825;23;20807;-81
2021/01/26 08:55:29;;;;;;;58.13;45.53;;;2.20;99.90;;;;;;6174102;23;20423;-81
2021/01/26 08:57:58;;;;;;;57.00;44.50;;;2.20;99.90;;;;;;6174800;23;20427;-81
2021/01/26 09:00:45;;;;;;;53.20;38.53;;;2.20;99.90;;;;;;6175312;23;20433;-81
2021/01/26 09:03:34;;;;;;;54.10;43.00;;;2.30;99.90;;;;;;6174133;23;20411;-81
2021/01/26 09:06:04;;;;;;;50.00;39.50;;;2.30;99.90;;;;;;6175356;23;20466;-81
2021/01/26 09:08:52;;;;;;;55.07;45.47;;;2.30;99.90;;;;;;6175251;23;20449;-81
2021/01/26 09:11:26;;;;;;;51.63;41.17;;;2.40;99.90;;;;;;6174532;23;20873;-81
2021/01/26 09:14:03;;;;;;;50.03;41.33;;;2.40;99.90;;;;;;6198420;23;20424;-81
2021/01/26 09:16:32;;;;;;;49.40;42.97;;;2.40;99.90;;;;;;6209981;23;20416;-81
2021/01/26 09:19:04;;;;;;;49.53;41.63;;;2.40;99.90;;;;;;6174775;23;20447;-81
2021/01/26 09:21:35;;;;;;;50.80;42.10;;;2.40;99.90;;;;;;6175341;23;20413;-82
2021/01/26 09:24:03;;;;;;;48.07;42.17;;;2.40;99.90;;;;;;6211545;23;20399;-81
2021/01/26 09:26:31;;;;;;;50.13;42.60;;;2.50;99.90;;;;;;6174354;23;20429;-81
2021/01/26 09:28:59;;;;;;;51.63;42.70;;;2.50;99.90;;;;;;6175605;23;20450;-81
2021/01/26 09:31:30;;;;;;;53.33;42.80;;;2.60;99.90;;;;;;6175224;23;20411;-81
2021/01/26 09:34:03;;;;;;;54.10;42.67;;;2.60;99.90;;;;;;6175065;23;20415;-81
2021/01/26 09:36:33;;;;;;;59.00;45.60;;;2.60;99.90;;;;;;6174766;23;20438;-81
2021/01/26 09:39:05;;;;;;;53.40;43.63;;;2.60;99.90;;;;;;6202459;23;20782;-81
2021/01/26 09:41:35;;;;;;;53.47;44.17;;;2.60;99.90;;;;;;6212240;23;20409;-81
2021/01/26 09:44:08;;;;;;;55.37;44.10;;;2.70;99.90;;;;;;6176446;23;20411;-81
2021/01/26 09:46:37;;;;;;;55.80;44.50;;;2.70;99.90;;;;;;6176069;23;20417;-81
2021/01/26 09:49:13;;;;;;;51.90;43.77;;;2.70;99.90;;;;;;6211610;23;20450;-81
2021/01/26 09:51:44;;;;;;;53.27;43.17;;;2.80;99.90;;;;;;6211669;23;20394;-81
2021/01/26 09:54:17;;;;;;;52.27;43.40;;;2.70;99.90;;;;;;6211338;23;20380;-81
2021/01/26 09:56:45;;;;;;;48.67;41.03;;;2.80;99.90;;;;;;6175054;23;20412;-81
2021/01/26 09:59:14;;;;;;;46.63;38.13;;;2.80;99.90;;;;;;6176662;23;20490;-81
2021/01/26 10:01:46;;;;;;;46.80;37.80;;;2.90;99.90;;;;;;6213862;23;20387;-81
2021/01/26 10:04:25;;;;;;;43.73;35.73;;;2.90;99.90;;;;;;6213066;23;20422;-81
2021/01/26 10:07:12;;;;;;;44.37;36.90;;;2.90;99.90;;;;;;6178698;23;20433;-81
2021/01/26 10:09:41;;;;;;;43.30;36.43;;;2.90;99.90;;;;;;6178153;23;20437;-81
2021/01/26 10:12:19;;;;;;;42.67;37.00;;;3.00;99.90;;;;;;6178546;23;20423;-81
2021/01/26 10:15:14;;;;;;;43.27;35.60;;;3.00;99.90;;;;;;6179860;23;20415;-81
2021/01/26 10:17:44;;;;;;;41.30;35.17;;;3.10;99.90;;;;;;6178656;23;20793;-81
2021/01/26 10:20:20;;;;;;;39.73;33.40;;;3.00;99.90;;;;;;6180362;23;20511;-81
2021/01/26 10:22:47;;;;;;;40.10;33.60;;;3.10;99.90;;;;;;6181959;23;20493;-81
2021/01/26 10:25:16;;;;;;;42.00;35.00;;;3.10;99.90;;;;;;6175026;23;20484;-81
2021/01/26 10:27:44;;;;;;;38.30;32.30;;;3.20;99.90;;;;;;6177385;23;20411;-81
2021/01/26 10:30:16;;;;;;;36.90;31.17;;;3.20;99.90;;;;;;6212448;23;20427;-81
2021/01/26 10:32:48;;;;;;;37.63;31.20;;;3.30;99.90;;;;;;6175762;23;20411;-82
2021/01/26 10:35:27;;;;;;;36.90;31.40;;;3.30;99.90;;;;;;6175098;23;20466;-82
2021/01/26 10:37:56;;;;;;;36.30;31.77;;;3.40;99.90;;;;;;6174094;23;20901;-82
2021/01/26 10:40:41;;;;;;;35.80;30.60;;;3.40;99.90;;;;;;6211113;23;20426;-82
2021/01/26 10:43:12;;;;;;;34.00;28.03;;;3.50;99.90;;;;;;6174816;23;20410;-82
2021/01/26 10:45:47;;;;;;;34.40;29.60;;;3.50;99.90;;;;;;6174006;23;20450;-82
2021/01/26 10:48:25;;;;;;;33.47;28.17;;;3.50;99.90;;;;;;6174156;23;20411;-82
2021/01/26 10:50:54;;;;;;;33.70;28.67;;;3.50;99.90;;;;;;6172401;23;20878;-82
2021/01/26 10:53:35;;;;;;;30.47;27.00;;;3.50;99.90;;;;;;6171054;23;20410;-82
2021/01/26 10:56:03;;;;;;;33.90;29.77;;;3.50;99.90;;;;;;6168665;23;20402;-82
2021/01/26 10:58:30;;;;;;;32.70;26.67;;;3.50;99.90;;;;;;6176361;23;20420;-82
2021/01/26 11:00:58;;;;;;;32.70;26.23;;;3.50;99.90;;;;;;6176832;23;20417;-82
2021/01/26 11:03:26;;;;;;;33.80;26.30;;;3.60;99.90;;;;;;6176408;23;20442;-81
2021/01/26 11:05:54;;;;;;;31.43;27.67;;;3.60;99.90;;;;;;6176733;23;20789;-81
2021/01/26 11:08:21;;;;;;;33.43;28.20;;;3.70;99.90;;;;;;6177233;23;20407;-81
2021/01/26 11:10:48;;;;;;;30.23;26.80;;;3.70;99.90;;;;;;6213359;23;20396;-81
2021/01/26 11:13:16;;;;;;;33.60;29.50;;;3.80;99.90;;;;;;6213622;23;20427;-81
2021/01/26 11:15:43;;;;;;;34.63;30.73;;;3.90;99.90;;;;;;6177027;23;20441;-81
2021/01/26 11:18:12;;;;;;;30.30;26.73;;;4.00;99.90;;;;;;6176679;23;20411;-81
2021/01/26 11:20:40;;;;;;;31.10;27.80;;;4.00;99.90;;;;;;6175576;23;20443;-81
2021/01/26 11:23:08;;;;;;;29.60;26.40;;;4.10;99.90;;;;;;6175853;23;20446;-81
2021/01/26 11:25:36;;;;;;;30.17;26.93;;;4.20;99.90;;;;;;6177678;23;20435;-81
2021/01/26 11:28:05;;;;;;;32.03;26.30;;;4.20;99.90;;;;;;6176769;23;20438;-81
2021/01/26 11:30:33;;;;;;;27.63;24.47;;;4.20;99.90;;;;;;6177484;23;20494;-81
2021/01/26 11:33:01;;;;;;;27.80;24.63;;;4.30;99.90;;;;;;6177769;23;20439;-81
2021/01/26 11:35:30;;;;;;;26.87;23.93;;;4.30;99.90;;;;;;6177318;23;20415;-81
2021/01/26 11:37:57;;;;;;;27.00;21.07;;;4.30;99.90;;;;;;6177743;23;20415;-81
2021/01/26 11:40:25;;;;;;;25.55;22.00;;;4.40;99.90;;;;;;6176642;23;20450;-81
2021/01/26 11:42:53;;;;;;;21.73;19.10;;;4.50;99.90;;;;;;6177865;23;20168;-81
2021/01/26 11:45:24;;;;;;;24.77;22.10;;;4.50;99.90;;;;;;6178092;23;20813;-81
2021/01/26 11:47:51;;;;;;;24.90;22.13;;;4.50;99.90;;;;;;6179283;23;20827;-81
2021/01/26 11:50:20;;;;;;;24.77;21.55;;;4.50;99.90;;;;;;6178228;23;20949;-81
2021/01/26 11:52:48;;;;;;;21.80;17.57;;;4.50;99.90;;;;;;6216629;23;20218;-81
2021/01/26 11:55:18;;;;;;;19.53;17.17;;;4.60;99.90;;;;;;6181271;23;20473;-81
2021/01/26 11:57:46;;;;;;;18.57;16.57;;;4.60;99.90;;;;;;6183040;23;20411;-81
2021/01/26 12:00:16;;;;;;;19.90;17.80;;;4.70;99.90;;;;;;6184114;23;20446;-81
2021/01/26 12:02:44;;;;;;;22.00;19.77;;;4.60;99.90;;;;;;6182838;23;20404;-81
2021/01/26 12:05:13;;;;;;;20.50;17.20;;;4.60;99.90;;;;;;6180774;23;20435;-81
2021/01/26 12:07:40;;;;;;;20.70;18.00;;;4.60;99.90;;;;;;6212658;23;20748;-81
2021/01/26 12:10:10;;;;;;;22.50;18.80;;;4.60;99.90;;;;;;6176053;23;20439;-81
2021/01/26 12:12:37;;;;;;;21.23;18.90;;;4.60;99.90;;;;;;6175917;23;20423;-81
2021/01/26 12:15:07;;;;;;;21.93;18.83;;;4.60;99.90;;;;;;6175154;23;20803;-81
2021/01/26 12:17:35;;;;;;;22.17;19.70;;;4.70;99.90;;;;;;6174952;23;20804;-81
2021/01/26 12:20:04;;;;;;;23.40;18.73;;;4.70;99.90;;;;;;6175182;23;20439;-82
2021/01/26 12:22:31;;;;;;;19.63;17.53;;;4.70;99.90;;;;;;6175064;23;20419;-82
2021/01/26 12:24:59;;;;;;;19.37;17.37;;;4.70;99.90;;;;;;6176260;23;20470;-82
2021/01/26 12:27:27;;;;;;;19.53;17.47;;;4.80;99.90;;;;;;6176442;23;20748;-82
2021/01/26 12:29:54;;;;;;;18.17;16.27;;;4.80;99.90;;;;;;6176666;23;20441;-82
2021/01/26 12:32:22;;;;;;;16.27;14.67;;;4.90;99.90;;;;;;6177159;23;20412;-82
2021/01/26 12:34:49;;;;;;;20.73;16.87;;;4.90;99.90;;;;;;6176480;23;20419;-82
2021/01/26 12:37:19;;;;;;;18.87;16.87;;;4.90;99.90;;;;;;6176472;23;20415;-82
2021/01/26 12:39:46;;;;;;;17.40;15.50;;;4.90;99.90;;;;;;6175048;23;20435;-82
2021/01/26 12:42:14;;;;;;;15.40;13.90;;;4.90;99.90;;;;;;6176221;23;20412;-82
2021/01/26 12:44:42;;;;;;;17.27;14.80;;;5.00;99.90;;;;;;6176598;23;20431;-82
2021/01/26 12:47:10;;;;;;;17.87;14.83;;;5.00;99.90;;;;;;6176459;23;20442;-82
2021/01/26 12:49:38;;;;;;;16.00;14.40;;;5.00;99.90;;;;;;6177282;23;20466;-82
2021/01/26 12:52:05;;;;;;;15.50;13.90;;;5.10;99.90;;;;;;6177550;23;20423;-82
2021/01/26 12:54:32;;;;;;;15.53;14.00;;;5.10;99.90;;;;;;6213720;23;20890;-81
2021/01/26 12:57:00;;;;;;;14.90;13.00;;;5.20;99.90;;;;;;6176650;23;20407;-81
2021/01/26 12:59:27;;;;;;;13.20;11.80;;;5.20;99.90;;;;;;6174739;23;20443;-81
2021/01/26 13:01:56;;;;;;;14.33;12.60;;;5.20;99.90;;;;;;6175025;23;20408;-81
2021/01/26 13:04:23;;;;;;;12.00;10.53;;;5.20;99.90;;;;;;6175493;23;20412;-81
2021/01/26 13:06:50;;;;;;;12.80;10.50;;;5.20;99.90;;;;;;6175689;23;20415;-81
2021/01/26 13:09:18;;;;;;;11.70;10.50;;;5.30;99.90;;;;;;6211430;23;20491;-81
2021/01/26 13:11:45;;;;;;;10.40;9.40;;;5.30;99.90;;;;;;6176234;23;20423;-81